sensor_id;sensor_type;location;lat;lon;timestamp;pressure;altitude;pressure_sealevel;temperature;humidity
2184;BME280;1098;48.940;8.962;2022-08-02T00:00:59;98695.75;;;19.81;100.00
2184;BME280;1098;48.940;8.962;2022-08-02T00:03:27;98687.13;;;20.08;100.00
2184;BME280;1098;48.940;8.962;2022-08-02T00:05:56;98689.97;;;19.88;100.00
2184;BME280;1098;48.940;8.962;2022-08-02T00:08:28;98698.78;;;19.75;100.00
2184;BME280;1098;48.940;8.962;2022-08-02T00:10:56;98695.88;;;19.56;100.00
2184;BME280;1098;48.940;8.962;2022-08-02T00:13:24;98698.31;;;19.58;100.00
2184;BME280;1098;48.940;8.962;2022-08-02T00:15:53;98693.44;;;19.34;100.00
2184;BME280;1098;48.940;8.962;2022-08-02T00:18:23;98685.47;;;19.43;100.00
2184;BME280;1098;48.940;8.962;2022-08-02T00:20:51;98688.53;;;19.31;100.00
2184;BME280;1098;48.940;8.962;2022-08-02T00:23:20;98689.66;;;19.25;100.00
2184;BME280;1098;48.940;8.962;2022-08-02T00:25:51;98688.00;;;19.19;100.00
2184;BME280;1098;48.940;8.962;2022-08-02T00:28:22;98690.19;;;19.22;100.00
2184;BME280;1098;48.940;8.962;2022-08-02T00:30:53;98695.88;;;19.56;100.00
2184;BME280;1098;48.940;8.962;2022-08-02T00:33:21;98694.84;;;19.27;100.00
2184;BME280;1098;48.940;8.962;2022-08-02T00:36:09;98693.75;;;19.22;100.00
2184;BME280;1098;48.940;8.962;2022-08-02T00:38:37;98693.53;;;19.04;100.00
2184;BME280;1098;48.940;8.962;2022-08-02T00:41:11;98683.03;;;19.51;100.00
2184;BME280;1098;48.940;8.962;2022-08-02T00:43:40;98689.16;;;19.08;100.00
2184;BME280;1098;48.940;8.962;2022-08-02T00:46:10;98696.03;;;18.90;100.00
2184;BME280;1098;48.940;8.962;2022-08-02T00:48:38;98693.25;;;19.00;100.00
2184;BME280;1098;48.940;8.962;2022-08-02T00:51:09;98709.72;;;18.80;100.00
2184;BME280;1098;48.940;8.962;2022-08-02T00:53:37;98704.50;;;18.99;100.00
2184;BME280;1098;48.940;8.962;2022-08-02T00:56:07;98703.94;;;19.12;100.00
2184;BME280;1098;48.940;8.962;2022-08-02T00:58:37;98702.88;;;18.87;100.00
2184;BME280;1098;48.940;8.962;2022-08-02T01:01:05;98698.97;;;19.14;100.00
2184;BME280;1098;48.940;8.962;2022-08-02T01:03:33;98699.03;;;18.88;100.00
2184;BME280;1098;48.940;8.962;2022-08-02T01:06:01;98698.19;;;18.98;100.00
2184;BME280;1098;48.940;8.962;2022-08-02T01:08:37;98704.81;;;18.67;100.00
2184;BME280;1098;48.940;8.962;2022-08-02T01:11:06;98704.75;;;18.57;100.00
2184;BME280;1098;48.940;8.962;2022-08-02T01:13:34;98701.47;;;18.95;100.00
2184;BME280;1098;48.940;8.962;2022-08-02T01:16:11;98705.59;;;18.77;100.00
2184;BME280;1098;48.940;8.962;2022-08-02T01:18:42;98712.69;;;18.58;100.00
2184;BME280;1098;48.940;8.962;2022-08-02T01:24:15;98717.88;;;18.39;100.00
2184;BME280;1098;48.940;8.962;2022-08-02T01:26:45;98715.13;;;18.29;100.00
2184;BME280;1098;48.940;8.962;2022-08-02T01:29:18;98714.59;;;18.27;100.00
2184;BME280;1098;48.940;8.962;2022-08-02T01:31:49;98712.41;;;18.54;100.00
2184;BME280;1098;48.940;8.962;2022-08-02T01:34:21;98713.81;;;19.03;100.00
2184;BME280;1098;48.940;8.962;2022-08-02T01:36:53;98721.50;;;18.60;100.00
2184;BME280;1098;48.940;8.962;2022-08-02T01:39:24;98728.53;;;18.31;100.00
2184;BME280;1098;48.940;8.962;2022-08-02T01:41:58;98740.59;;;18.35;100.00
2184;BME280;1098;48.940;8.962;2022-08-02T01:44:32;98741.41;;;18.25;100.00
2184;BME280;1098;48.940;8.962;2022-08-02T01:47:02;98745.75;;;18.16;100.00
2184;BME280;1098;48.940;8.962;2022-08-02T01:49:32;98746.59;;;18.32;100.00
2184;BME280;1098;48.940;8.962;2022-08-02T01:52:01;98741.66;;;18.34;100.00
2184;BME280;1098;48.940;8.962;2022-08-02T01:54:48;98741.13;;;18.32;100.00
2184;BME280;1098;48.940;8.962;2022-08-02T01:57:16;98744.94;;;18.20;100.00
2184;BME280;1098;48.940;8.962;2022-08-02T01:59:47;98755.34;;;18.34;100.00
2184;BME280;1098;48.940;8.962;2022-08-02T02:02:16;98749.88;;;18.34;100.00
2184;BME280;1098;48.940;8.962;2022-08-02T02:04:46;98752.03;;;18.06;100.00
2184;BME280;1098;48.940;8.962;2022-08-02T02:07:16;98750.50;;;18.97;100.00
2184;BME280;1098;48.940;8.962;2022-08-02T02:09:45;98743.66;;;18.94;100.00
2184;BME280;1098;48.940;8.962;2022-08-02T02:12:17;98738.19;;;18.64;100.00
2184;BME280;1098;48.940;8.962;2022-08-02T02:14:48;98745.81;;;18.41;100.00
2184;BME280;1098;48.940;8.962;2022-08-02T02:17:18;98742.78;;;18.43;100.00
2184;BME280;1098;48.940;8.962;2022-08-02T02:20:07;98740.28;;;18.21;100.00
2184;BME280;1098;48.940;8.962;2022-08-02T02:22:36;98739.22;;;18.32;100.00
2184;BME280;1098;48.940;8.962;2022-08-02T02:25:06;98735.38;;;18.23;100.00
2184;BME280;1098;48.940;8.962;2022-08-02T02:27:38;98733.69;;;18.12;100.00
2184;BME280;1098;48.940;8.962;2022-08-02T02:30:12;98730.94;;;17.97;100.00
2184;BME280;1098;48.940;8.962;2022-08-02T02:32:40;98721.91;;;18.01;100.00
2184;BME280;1098;48.940;8.962;2022-08-02T02:35:11;98705.50;;;17.96;100.00
2184;BME280;1098;48.940;8.962;2022-08-02T02:37:40;98708.50;;;17.95;100.00
2184;BME280;1098;48.940;8.962;2022-08-02T02:40:10;98703.28;;;17.93;100.00
2184;BME280;1098;48.940;8.962;2022-08-02T02:42:39;98706.06;;;17.98;100.00
2184;BME280;1098;48.940;8.962;2022-08-02T02:45:16;98711.41;;;17.68;100.00
2184;BME280;1098;48.940;8.962;2022-08-02T02:47:47;98712.66;;;17.50;100.00
2184;BME280;1098;48.940;8.962;2022-08-02T02:50:16;98715.94;;;17.42;100.00
2184;BME280;1098;48.940;8.962;2022-08-02T02:52:44;98720.56;;;17.41;100.00
2184;BME280;1098;48.940;8.962;2022-08-02T02:55:13;98720.28;;;17.38;100.00
2184;BME280;1098;48.940;8.962;2022-08-02T02:57:42;98716.06;;;17.72;100.00
2184;BME280;1098;48.940;8.962;2022-08-02T03:00:11;98710.59;;;17.72;100.00
2184;BME280;1098;48.940;8.962;2022-08-02T03:02:42;98713.53;;;17.56;100.00
2184;BME280;1098;48.940;8.962;2022-08-02T03:05:10;98729.22;;;17.23;100.00
2184;BME280;1098;48.940;8.962;2022-08-02T03:07:39;98714.59;;;17.55;100.00
2184;BME280;1098;48.940;8.962;2022-08-02T03:10:08;98711.13;;;17.69;100.00
2184;BME280;1098;48.940;8.962;2022-08-02T03:12:36;98720.72;;;17.72;100.00
2184;BME280;1098;48.940;8.962;2022-08-02T03:15:05;98711.59;;;18.24;100.00
2184;BME280;1098;48.940;8.962;2022-08-02T03:17:38;98713.94;;;17.84;100.00
2184;BME280;1098;48.940;8.962;2022-08-02T03:20:11;98713.75;;;18.16;100.00
2184;BME280;1098;48.940;8.962;2022-08-02T03:22:40;98704.44;;;18.12;100.00
2184;BME280;1098;48.940;8.962;2022-08-02T03:25:08;98704.47;;;18.33;100.00
2184;BME280;1098;48.940;8.962;2022-08-02T03:27:36;98712.94;;;18.21;100.00
2184;BME280;1098;48.940;8.962;2022-08-02T03:30:08;98714.00;;;18.15;100.00
2184;BME280;1098;48.940;8.962;2022-08-02T03:32:36;98719.56;;;17.63;100.00
2184;BME280;1098;48.940;8.962;2022-08-02T03:35:06;98715.47;;;18.63;100.00
2184;BME280;1098;48.940;8.962;2022-08-02T03:37:36;98720.84;;;18.12;100.00
2184;BME280;1098;48.940;8.962;2022-08-02T03:40:05;98720.59;;;18.29;100.00
2184;BME280;1098;48.940;8.962;2022-08-02T03:42:34;98726.44;;;17.65;100.00
2184;BME280;1098;48.940;8.962;2022-08-02T03:45:02;98734.25;;;18.14;100.00
2184;BME280;1098;48.940;8.962;2022-08-02T03:47:35;98733.16;;;18.15;100.00
2184;BME280;1098;48.940;8.962;2022-08-02T03:50:04;98738.16;;;18.43;100.00
2184;BME280;1098;48.940;8.962;2022-08-02T03:52:32;98747.44;;;18.27;100.00
2184;BME280;1098;48.940;8.962;2022-08-02T03:55:02;98744.41;;;18.34;100.00
2184;BME280;1098;48.940;8.962;2022-08-02T03:57:30;98765.66;;;17.49;100.00
2184;BME280;1098;48.940;8.962;2022-08-02T03:59:58;98767.66;;;17.59;100.00
2184;BME280;1098;48.940;8.962;2022-08-02T04:02:26;98766.00;;;17.58;100.00
2184;BME280;1098;48.940;8.962;2022-08-02T04:04:55;98761.16;;;17.65;100.00
2184;BME280;1098;48.940;8.962;2022-08-02T04:07:23;98758.84;;;17.51;100.00
2184;BME280;1098;48.940;8.962;2022-08-02T04:10:12;98767.56;;;17.43;100.00
2184;BME280;1098;48.940;8.962;2022-08-02T04:12:40;98770.31;;;17.43;100.00
2184;BME280;1098;48.940;8.962;2022-08-02T04:15:10;98770.31;;;17.48;100.00
2184;BME280;1098;48.940;8.962;2022-08-02T04:17:42;98769.69;;;17.36;100.00
2184;BME280;1098;48.940;8.962;2022-08-02T04:20:11;98770.31;;;17.43;100.00
2184;BME280;1098;48.940;8.962;2022-08-02T04:22:42;98766.56;;;17.60;100.00
2184;BME280;1098;48.940;8.962;2022-08-02T04:25:13;98775.88;;;17.64;100.00
2184;BME280;1098;48.940;8.962;2022-08-02T04:27:43;98772.09;;;17.70;100.00
2184;BME280;1098;48.940;8.962;2022-08-02T04:30:31;98782.50;;;17.73;100.00
2184;BME280;1098;48.940;8.962;2022-08-02T04:33:00;98755.94;;;17.63;100.00
2184;BME280;1098;48.940;8.962;2022-08-02T04:35:28;98785.75;;;17.65;100.00
2184;BME280;1098;48.940;8.962;2022-08-02T04:37:56;98784.44;;;17.77;100.00
2184;BME280;1098;48.940;8.962;2022-08-02T04:40:37;98777.16;;;18.08;100.00
2184;BME280;1098;48.940;8.962;2022-08-02T04:43:05;98774.63;;;17.81;100.00
2184;BME280;1098;48.940;8.962;2022-08-02T04:45:34;98771.16;;;18.11;100.00
2184;BME280;1098;48.940;8.962;2022-08-02T04:48:02;98772.75;;;17.97;100.00
2184;BME280;1098;48.940;8.962;2022-08-02T04:50:32;98770.91;;;18.08;100.00
2184;BME280;1098;48.940;8.962;2022-08-02T04:53:00;98777.25;;;18.29;100.00
2184;BME280;1098;48.940;8.962;2022-08-02T04:55:28;98769.03;;;18.34;100.00
2184;BME280;1098;48.940;8.962;2022-08-02T04:57:58;98771.81;;;18.54;100.00
2184;BME280;1098;48.940;8.962;2022-08-02T05:00:29;98769.97;;;18.90;100.00
2184;BME280;1098;48.940;8.962;2022-08-02T05:02:58;98766.41;;;18.84;100.00
2184;BME280;1098;48.940;8.962;2022-08-02T05:05:26;98768.03;;;18.85;100.00
2184;BME280;1098;48.940;8.962;2022-08-02T05:07:55;98774.03;;;19.23;100.00
2184;BME280;1098;48.940;8.962;2022-08-02T05:10:23;98776.78;;;19.28;100.00
2184;BME280;1098;48.940;8.962;2022-08-02T05:12:51;98762.47;;;19.56;100.00
2184;BME280;1098;48.940;8.962;2022-08-02T05:15:20;98762.94;;;19.84;100.00
2184;BME280;1098;48.940;8.962;2022-08-02T05:17:48;98766.75;;;19.88;100.00
2184;BME280;1098;48.940;8.962;2022-08-02T05:20:17;98766.28;;;19.71;100.00
2184;BME280;1098;48.940;8.962;2022-08-02T05:22:47;98768.25;;;19.35;100.00
2184;BME280;1098;48.940;8.962;2022-08-02T05:25:15;98753.41;;;19.61;100.00
2184;BME280;1098;48.940;8.962;2022-08-02T05:27:44;98760.00;;;20.24;100.00
2184;BME280;1098;48.940;8.962;2022-08-02T05:30:12;98749.03;;;20.19;100.00
2184;BME280;1098;48.940;8.962;2022-08-02T05:32:48;98750.03;;;20.44;100.00
2184;BME280;1098;48.940;8.962;2022-08-02T05:35:16;98753.91;;;20.33;100.00
2184;BME280;1098;48.940;8.962;2022-08-02T05:37:45;98753.00;;;19.98;100.00
2184;BME280;1098;48.940;8.962;2022-08-02T05:40:14;98762.72;;;19.70;100.00
2184;BME280;1098;48.940;8.962;2022-08-02T05:42:43;98758.44;;;20.08;100.00
2184;BME280;1098;48.940;8.962;2022-08-02T05:45:11;98763.13;;;19.98;100.00
2184;BME280;1098;48.940;8.962;2022-08-02T05:47:39;98750.34;;;21.05;100.00
2184;BME280;1098;48.940;8.962;2022-08-02T05:50:08;98751.09;;;22.54;100.00
2184;BME280;1098;48.940;8.962;2022-08-02T05:52:41;98761.28;;;21.68;100.00
2184;BME280;1098;48.940;8.962;2022-08-02T05:55:15;98760.94;;;21.22;100.00
2184;BME280;1098;48.940;8.962;2022-08-02T05:57:49;98759.50;;;23.14;100.00
2184;BME280;1098;48.940;8.962;2022-08-02T06:00:19;98757.53;;;26.51;78.93
2184;BME280;1098;48.940;8.962;2022-08-02T06:03:02;98755.63;;;27.96;64.13
2184;BME280;1098;48.940;8.962;2022-08-02T06:05:33;98762.75;;;28.06;63.88
2184;BME280;1098;48.940;8.962;2022-08-02T06:08:02;98761.72;;;27.43;64.24
2184;BME280;1098;48.940;8.962;2022-08-02T06:10:35;98771.47;;;27.49;64.08
2184;BME280;1098;48.940;8.962;2022-08-02T06:13:07;98763.41;;;27.18;63.81
2184;BME280;1098;48.940;8.962;2022-08-02T06:15:40;98771.59;;;26.06;71.53
2184;BME280;1098;48.940;8.962;2022-08-02T06:18:19;98767.13;;;25.26;79.15
2184;BME280;1098;48.940;8.962;2022-08-02T06:20:56;98762.59;;;25.92;79.23
2184;BME280;1098;48.940;8.962;2022-08-02T06:23:45;98766.19;;;26.01;75.73
2184;BME280;1098;48.940;8.962;2022-08-02T06:26:25;98759.91;;;26.26;69.76
2184;BME280;1098;48.940;8.962;2022-08-02T06:28:54;98751.09;;;26.16;71.35
2184;BME280;1098;48.940;8.962;2022-08-02T06:31:22;98750.50;;;27.78;63.27
2184;BME280;1098;48.940;8.962;2022-08-02T06:33:50;98751.47;;;27.82;63.96
2184;BME280;1098;48.940;8.962;2022-08-02T06:36:23;98759.97;;;26.35;66.46
2184;BME280;1098;48.940;8.962;2022-08-02T06:39:00;98755.78;;;23.37;96.39
2184;BME280;1098;48.940;8.962;2022-08-02T06:41:30;98761.81;;;22.55;100.00
2184;BME280;1098;48.940;8.962;2022-08-02T06:43:58;98753.00;;;22.91;100.00
2184;BME280;1098;48.940;8.962;2022-08-02T06:46:47;98752.38;;;22.80;100.00
2184;BME280;1098;48.940;8.962;2022-08-02T06:49:35;98755.50;;;22.36;100.00
2184;BME280;1098;48.940;8.962;2022-08-02T06:52:22;98749.91;;;22.79;100.00
2184;BME280;1098;48.940;8.962;2022-08-02T06:54:56;98757.94;;;23.26;100.00
2184;BME280;1098;48.940;8.962;2022-08-02T06:57:24;98761.31;;;23.37;100.00
2184;BME280;1098;48.940;8.962;2022-08-02T06:59:52;98763.25;;;23.37;100.00
2184;BME280;1098;48.940;8.962;2022-08-02T07:02:20;98764.69;;;23.02;100.00
2184;BME280;1098;48.940;8.962;2022-08-02T07:04:49;98758.47;;;22.77;100.00
2184;BME280;1098;48.940;8.962;2022-08-02T07:07:17;98765.78;;;21.83;100.00
2184;BME280;1098;48.940;8.962;2022-08-02T07:09:49;98757.34;;;23.43;100.00
2184;BME280;1098;48.940;8.962;2022-08-02T07:12:27;98762.72;;;23.21;100.00
2184;BME280;1098;48.940;8.962;2022-08-02T07:14:55;98747.59;;;22.29;100.00
2184;BME280;1098;48.940;8.962;2022-08-02T07:17:23;98760.25;;;22.31;100.00
2184;BME280;1098;48.940;8.962;2022-08-02T07:19:51;98757.97;;;23.54;100.00
2184;BME280;1098;48.940;8.962;2022-08-02T07:22:19;98752.19;;;23.23;99.41
2184;BME280;1098;48.940;8.962;2022-08-02T07:24:50;98755.50;;;22.36;100.00
2184;BME280;1098;48.940;8.962;2022-08-02T07:27:19;98756.28;;;22.74;100.00
2184;BME280;1098;48.940;8.962;2022-08-02T07:29:47;98765.25;;;23.31;100.00
2184;BME280;1098;48.940;8.962;2022-08-02T07:32:15;98765.44;;;22.88;100.00
2184;BME280;1098;48.940;8.962;2022-08-02T07:34:43;98779.97;;;22.75;100.00
2184;BME280;1098;48.940;8.962;2022-08-02T07:37:19;98783.13;;;23.20;100.00
2184;BME280;1098;48.940;8.962;2022-08-02T07:40:10;98780.44;;;23.15;100.00
2184;BME280;1098;48.940;8.962;2022-08-02T07:42:41;98781.59;;;23.60;100.00
2184;BME280;1098;48.940;8.962;2022-08-02T07:45:09;98774.66;;;23.76;100.00
2184;BME280;1098;48.940;8.962;2022-08-02T07:47:38;98780.81;;;22.57;100.00
2184;BME280;1098;48.940;8.962;2022-08-02T07:50:06;98776.22;;;22.66;100.00
2184;BME280;1098;48.940;8.962;2022-08-02T07:52:35;98775.00;;;22.77;100.00
2184;BME280;1098;48.940;8.962;2022-08-02T07:55:04;98777.53;;;22.55;100.00
2184;BME280;1098;48.940;8.962;2022-08-02T07:57:34;98776.66;;;23.11;100.00
2184;BME280;1098;48.940;8.962;2022-08-02T08:00:02;98779.03;;;22.85;100.00
2184;BME280;1098;48.940;8.962;2022-08-02T08:02:37;98781.97;;;22.51;100.00
2184;BME280;1098;48.940;8.962;2022-08-02T08:05:06;98776.22;;;23.50;100.00
2184;BME280;1098;48.940;8.962;2022-08-02T08:07:34;98767.41;;;23.67;96.13
2184;BME280;1098;48.940;8.962;2022-08-02T08:10:03;98772.81;;;23.72;94.97
2184;BME280;1098;48.940;8.962;2022-08-02T08:12:31;98782.19;;;23.57;90.03
2184;BME280;1098;48.940;8.962;2022-08-02T08:15:00;98770.66;;;23.55;97.99
2184;BME280;1098;48.940;8.962;2022-08-02T08:17:28;98767.69;;;23.79;94.41
2184;BME280;1098;48.940;8.962;2022-08-02T08:19:56;98776.06;;;24.15;92.61
2184;BME280;1098;48.940;8.962;2022-08-02T08:22:27;98767.28;;;24.26;89.64
2184;BME280;1098;48.940;8.962;2022-08-02T08:24:55;98769.94;;;24.18;89.16
2184;BME280;1098;48.940;8.962;2022-08-02T08:27:23;98766.38;;;24.67;87.06
2184;BME280;1098;48.940;8.962;2022-08-02T08:29:51;98764.13;;;24.06;89.70
2184;BME280;1098;48.940;8.962;2022-08-02T08:32:21;98761.22;;;24.52;88.45
2184;BME280;1098;48.940;8.962;2022-08-02T08:34:49;98765.31;;;24.41;91.22
2184;BME280;1098;48.940;8.962;2022-08-02T08:37:18;98760.28;;;24.43;89.89
2184;BME280;1098;48.940;8.962;2022-08-02T08:39:46;98758.66;;;24.42;85.84
2184;BME280;1098;48.940;8.962;2022-08-02T08:42:24;98763.63;;;24.31;89.60
2184;BME280;1098;48.940;8.962;2022-08-02T08:44:53;98754.97;;;24.32;86.02
2184;BME280;1098;48.940;8.962;2022-08-02T08:47:23;98759.84;;;24.27;85.86
2184;BME280;1098;48.940;8.962;2022-08-02T08:50:00;98752.63;;;24.40;86.17
2184;BME280;1098;48.940;8.962;2022-08-02T08:52:29;98752.28;;;24.55;88.57
2184;BME280;1098;48.940;8.962;2022-08-02T08:55:00;98749.22;;;24.79;85.17
2184;BME280;1098;48.940;8.962;2022-08-02T08:57:30;98760.38;;;25.10;81.45
2184;BME280;1098;48.940;8.962;2022-08-02T08:59:59;98756.56;;;24.61;81.74
2184;BME280;1098;48.940;8.962;2022-08-02T09:02:30;98748.16;;;24.66;83.71
2184;BME280;1098;48.940;8.962;2022-08-02T09:04:59;98748.00;;;24.49;82.88
2184;BME280;1098;48.940;8.962;2022-08-02T09:07:27;98743.16;;;24.54;80.07
2184;BME280;1098;48.940;8.962;2022-08-02T09:09:55;98719.31;;;24.81;83.92
2184;BME280;1098;48.940;8.962;2022-08-02T09:12:24;98746.13;;;24.80;78.08
2184;BME280;1098;48.940;8.962;2022-08-02T09:14:52;98743.88;;;24.60;82.09
2184;BME280;1098;48.940;8.962;2022-08-02T09:17:20;98734.97;;;24.85;75.98
2184;BME280;1098;48.940;8.962;2022-08-02T09:19:50;98741.22;;;25.13;73.97
2184;BME280;1098;48.940;8.962;2022-08-02T09:22:32;98740.06;;;24.70;75.57
2184;BME280;1098;48.940;8.962;2022-08-02T09:25:03;98733.84;;;25.09;75.79
2184;BME280;1098;48.940;8.962;2022-08-02T09:27:34;98734.91;;;25.52;70.80
2184;BME280;1098;48.940;8.962;2022-08-02T09:30:03;98734.66;;;25.09;70.66
2184;BME280;1098;48.940;8.962;2022-08-02T09:32:43;98736.59;;;25.31;72.47
2184;BME280;1098;48.940;8.962;2022-08-02T09:38:19;98731.38;;;24.62;76.00
2184;BME280;1098;48.940;8.962;2022-08-02T09:40:47;98727.06;;;24.92;74.30
2184;BME280;1098;48.940;8.962;2022-08-02T09:43:15;98723.50;;;25.23;71.86
2184;BME280;1098;48.940;8.962;2022-08-02T09:45:43;98731.91;;;25.40;70.17
2184;BME280;1098;48.940;8.962;2022-08-02T09:48:11;98730.78;;;25.81;68.73
2184;BME280;1098;48.940;8.962;2022-08-02T09:50:40;98740.72;;;26.64;65.58
2184;BME280;1098;48.940;8.962;2022-08-02T09:53:10;98736.97;;;26.34;66.10
2184;BME280;1098;48.940;8.962;2022-08-02T09:55:40;98738.03;;;26.08;64.65
2184;BME280;1098;48.940;8.962;2022-08-02T09:58:18;98737.44;;;26.88;64.46
2184;BME280;1098;48.940;8.962;2022-08-02T10:00:53;98729.91;;;26.20;63.44
2184;BME280;1098;48.940;8.962;2022-08-02T10:03:21;98727.50;;;25.70;64.35
2184;BME280;1098;48.940;8.962;2022-08-02T10:06:01;98732.59;;;25.77;63.67
2184;BME280;1098;48.940;8.962;2022-08-02T10:08:30;98724.66;;;26.01;61.76
2184;BME280;1098;48.940;8.962;2022-08-02T10:11:01;98726.91;;;25.90;62.17
2184;BME280;1098;48.940;8.962;2022-08-02T10:13:30;98718.25;;;25.83;61.72
2184;BME280;1098;48.940;8.962;2022-08-02T10:15:59;98709.44;;;26.38;59.56
2184;BME280;1098;48.940;8.962;2022-08-02T10:18:28;98723.50;;;25.93;61.05
2184;BME280;1098;48.940;8.962;2022-08-02T10:21:06;98712.63;;;26.23;60.21
2184;BME280;1098;48.940;8.962;2022-08-02T10:23:35;98707.16;;;26.57;60.96
2184;BME280;1098;48.940;8.962;2022-08-02T10:26:07;98706.66;;;26.47;59.89
2184;BME280;1098;48.940;8.962;2022-08-02T10:28:35;98709.88;;;27.18;58.17
2184;BME280;1098;48.940;8.962;2022-08-02T10:31:04;98704.94;;;27.70;60.65
2184;BME280;1098;48.940;8.962;2022-08-02T10:33:34;98700.41;;;27.57;59.06
2184;BME280;1098;48.940;8.962;2022-08-02T10:36:04;98702.59;;;28.72;53.80
2184;BME280;1098;48.940;8.962;2022-08-02T10:38:33;98702.41;;;28.15;53.62
2184;BME280;1098;48.940;8.962;2022-08-02T10:41:02;98702.22;;;27.91;54.60
2184;BME280;1098;48.940;8.962;2022-08-02T10:43:42;98695.44;;;28.30;53.05
2184;BME280;1098;48.940;8.962;2022-08-02T10:46:24;98694.28;;;27.81;55.02
2184;BME280;1098;48.940;8.962;2022-08-02T10:49:03;98689.78;;;27.21;55.05
2184;BME280;1098;48.940;8.962;2022-08-02T10:51:57;98683.44;;;27.03;53.88
2184;BME280;1098;48.940;8.962;2022-08-02T10:54:26;98680.09;;;27.35;56.77
2184;BME280;1098;48.940;8.962;2022-08-02T10:56:55;98683.63;;;28.12;52.27
2184;BME280;1098;48.940;8.962;2022-08-02T10:59:29;98683.25;;;28.43;51.04
2184;BME280;1098;48.940;8.962;2022-08-02T11:01:57;98683.41;;;27.96;51.61
2184;BME280;1098;48.940;8.962;2022-08-02T11:04:30;98680.94;;;28.45;51.84
2184;BME280;1098;48.940;8.962;2022-08-02T11:07:08;98685.28;;;26.64;53.96
2184;BME280;1098;48.940;8.962;2022-08-02T11:09:36;98670.78;;;27.78;52.42
2184;BME280;1098;48.940;8.962;2022-08-02T11:12:06;98669.50;;;28.47;49.88
2184;BME280;1098;48.940;8.962;2022-08-02T11:14:38;98668.31;;;28.27;50.99
2184;BME280;1098;48.940;8.962;2022-08-02T11:17:09;98662.97;;;28.43;53.57
2184;BME280;1098;48.940;8.962;2022-08-02T11:22:25;98679.59;;;27.80;50.75
2184;BME280;1098;48.940;8.962;2022-08-02T11:24:53;98671.75;;;28.03;51.89
2184;BME280;1098;48.940;8.962;2022-08-02T11:27:23;98662.44;;;27.78;53.10
2184;BME280;1098;48.940;8.962;2022-08-02T11:29:54;98652.69;;;27.93;55.08
2184;BME280;1098;48.940;8.962;2022-08-02T11:32:23;98660.72;;;27.56;52.47
2184;BME280;1098;48.940;8.962;2022-08-02T11:34:57;98650.94;;;27.21;53.83
2184;BME280;1098;48.940;8.962;2022-08-02T11:37:26;98660.19;;;27.33;51.70
2184;BME280;1098;48.940;8.962;2022-08-02T11:39:54;98649.00;;;27.13;52.97
2184;BME280;1098;48.940;8.962;2022-08-02T11:42:29;98642.31;;;27.05;54.72
2184;BME280;1098;48.940;8.962;2022-08-02T11:44:59;98640.78;;;27.25;53.06
2184;BME280;1098;48.940;8.962;2022-08-02T11:47:27;98646.38;;;27.16;54.59
2184;BME280;1098;48.940;8.962;2022-08-02T11:50:02;98644.50;;;26.74;55.65
2184;BME280;1098;48.940;8.962;2022-08-02T11:52:31;98641.97;;;27.53;54.11
2184;BME280;1098;48.940;8.962;2022-08-02T11:54:59;98643.53;;;27.71;51.95
2184;BME280;1098;48.940;8.962;2022-08-02T11:57:28;98630.97;;;28.16;53.03
2184;BME280;1098;48.940;8.962;2022-08-02T12:00:17;98644.59;;;28.29;49.58
2184;BME280;1098;48.940;8.962;2022-08-02T12:02:46;98651.34;;;28.82;50.00
2184;BME280;1098;48.940;8.962;2022-08-02T12:05:15;98644.69;;;29.32;49.25
2184;BME280;1098;48.940;8.962;2022-08-02T12:07:46;98642.94;;;29.15;49.01
2184;BME280;1098;48.940;8.962;2022-08-02T12:10:15;98638.72;;;28.85;47.62
2184;BME280;1098;48.940;8.962;2022-08-02T12:12:48;98638.31;;;29.31;47.00
2184;BME280;1098;48.940;8.962;2022-08-02T12:15:29;98641.09;;;27.91;44.39
2184;BME280;1098;48.940;8.962;2022-08-02T12:17:59;98639.34;;;29.15;44.22
2184;BME280;1098;48.940;8.962;2022-08-02T12:20:45;98637.50;;;29.06;42.97
2184;BME280;1098;48.940;8.962;2022-08-02T12:23:13;98640.69;;;29.42;43.02
2184;BME280;1098;48.940;8.962;2022-08-02T12:25:41;98642.22;;;28.94;43.16
2184;BME280;1098;48.940;8.962;2022-08-02T12:28:16;98633.81;;;28.49;43.40
2184;BME280;1098;48.940;8.962;2022-08-02T12:30:51;98627.09;;;28.50;42.61
2184;BME280;1098;48.940;8.962;2022-08-02T12:33:19;98633.75;;;28.36;44.17
2184;BME280;1098;48.940;8.962;2022-08-02T12:35:48;98615.13;;;30.13;43.07
2184;BME280;1098;48.940;8.962;2022-08-02T12:38:16;98613.50;;;30.12;42.39
2184;BME280;1098;48.940;8.962;2022-08-02T12:40:44;98625.06;;;30.54;42.29
2184;BME280;1098;48.940;8.962;2022-08-02T12:43:16;98625.72;;;29.58;40.48
2184;BME280;1098;48.940;8.962;2022-08-02T12:45:45;98624.50;;;29.11;44.35
2184;BME280;1098;48.940;8.962;2022-08-02T12:48:28;98628.25;;;29.75;43.15
2184;BME280;1098;48.940;8.962;2022-08-02T12:51:19;98616.78;;;29.53;43.91
2184;BME280;1098;48.940;8.962;2022-08-02T12:53:49;98624.13;;;28.88;42.52
2184;BME280;1098;48.940;8.962;2022-08-02T12:56:26;98619.81;;;28.90;42.65
2184;BME280;1098;48.940;8.962;2022-08-02T12:58:55;98607.63;;;28.50;43.63
2184;BME280;1098;48.940;8.962;2022-08-02T13:01:24;98603.66;;;28.38;44.15
2184;BME280;1098;48.940;8.962;2022-08-02T13:03:54;98605.41;;;29.09;42.80
2184;BME280;1098;48.940;8.962;2022-08-02T13:06:39;98606.19;;;29.83;41.79
2184;BME280;1098;48.940;8.962;2022-08-02T13:09:12;98596.53;;;30.04;43.03
2184;BME280;1098;48.940;8.962;2022-08-02T13:11:41;98603.09;;;28.78;42.62
2184;BME280;1098;48.940;8.962;2022-08-02T13:14:10;98602.09;;;28.83;42.50
2184;BME280;1098;48.940;8.962;2022-08-02T13:16:39;98606.78;;;28.16;42.43
2184;BME280;1098;48.940;8.962;2022-08-02T13:19:09;98597.34;;;27.88;43.58
2184;BME280;1098;48.940;8.962;2022-08-02T13:21:38;98597.50;;;28.33;42.41
2184;BME280;1098;48.940;8.962;2022-08-02T13:24:27;98592.81;;;28.46;42.10
2184;BME280;1098;48.940;8.962;2022-08-02T13:27:15;98592.59;;;28.84;41.74
2184;BME280;1098;48.940;8.962;2022-08-02T13:29:43;98603.38;;;28.97;41.86
2184;BME280;1098;48.940;8.962;2022-08-02T13:32:12;98602.44;;;28.81;41.49
2184;BME280;1098;48.940;8.962;2022-08-02T13:34:42;98589.06;;;29.56;41.42
2184;BME280;1098;48.940;8.962;2022-08-02T13:37:11;98594.84;;;29.27;41.38
2184;BME280;1098;48.940;8.962;2022-08-02T13:39:39;98596.22;;;29.09;42.48
2184;BME280;1098;48.940;8.962;2022-08-02T13:42:07;98595.78;;;28.73;41.35
2184;BME280;1098;48.940;8.962;2022-08-02T13:44:45;98588.09;;;29.03;42.42